Time;durP1;ratioP1;P1;durP2;ratioP2;P2;SDS_P1;SDS_P2;PMS_P1;PMS_P2;Temp;Humidity;BMP_temperature;BMP_pressure;BME280_temperature;BME280_humidity;BME280_pressure;Samples;Min_cycle;Max_cycle;Signal;HPM_P1;HPM_P2
2023/09/02 00:04:39;;;;;;;11.10;8.47;;;11.30;99.90;;;;;;10450011;28;20231;-88
2023/09/02 00:09:43;;;;;;;12.43;10.10;;;11.30;99.90;;;;;;10448572;28;20395;-89
2023/09/02 00:14:45;;;;;;;14.77;9.60;;;11.30;99.90;;;;;;10449508;28;20716;-89
2023/09/02 00:19:48;;;;;;;10.13;8.37;;;11.30;99.90;;;;;;10449599;28;20238;-88
2023/09/02 00:24:50;;;;;;;11.73;8.33;;;11.20;99.90;;;;;;10449590;28;20288;-88
2023/09/02 00:29:53;;;;;;;13.97;8.37;;;11.10;99.90;;;;;;10449767;28;20284;-89
2023/09/02 00:34:55;;;;;;;11.23;8.63;;;11.00;99.90;;;;;;10447456;28;20259;-88
2023/09/02 00:39:58;;;;;;;10.93;8.30;;;10.90;99.90;;;;;;10449135;28;20679;-88
2023/09/02 00:45:01;;;;;;;9.63;8.30;;;10.90;99.90;;;;;;10450878;28;20299;-88
2023/09/02 00:50:04;;;;;;;10.73;8.60;;;10.70;99.90;;;;;;10456202;28;20238;-88
2023/09/02 00:55:07;;;;;;;8.80;7.50;;;10.70;99.90;;;;;;10455230;28;20245;-88
2023/09/02 01:00:12;;;;;;;9.33;7.70;;;10.70;99.90;;;;;;10454929;28;20207;-88
2023/09/02 01:05:15;;;;;;;9.40;8.00;;;10.60;99.90;;;;;;10496930;28;20668;-88
2023/09/02 01:10:18;;;;;;;16.63;9.27;;;10.70;99.90;;;;;;10462597;28;20266;-88
2023/09/02 01:15:21;;;;;;;11.47;8.63;;;10.90;99.90;;;;;;10456364;28;20250;-88
2023/09/02 01:20:27;;;;;;;9.50;8.47;;;11.10;99.90;;;;;;10454911;28;20222;-88
2023/09/02 01:25:49;;;;;;;11.37;8.33;;;11.30;99.90;;;;;;10453295;28;20215;-88
2023/09/02 01:30:54;;;;;;;12.17;8.03;;;11.30;99.90;;;;;;10455149;28;20234;-89
2023/09/02 01:35:58;;;;;;;10.53;8.63;;;11.20;99.90;;;;;;10412232;28;20262;-89
2023/09/02 01:41:05;;;;;;;13.07;8.10;;;11.10;99.90;;;;;;10412158;28;20703;-88
2023/09/02 01:46:08;;;;;;;14.47;8.67;;;11.00;99.90;;;;;;10442427;28;20239;-88
2023/09/02 01:51:13;;;;;;;12.23;7.93;;;10.80;99.90;;;;;;10454275;28;20253;-88
2023/09/02 01:56:16;;;;;;;8.60;7.53;;;10.70;99.90;;;;;;10451701;28;20312;-88
2023/09/02 02:01:18;;;;;;;10.63;7.33;;;10.60;99.90;;;;;;10449238;28;20640;-88
2023/09/02 02:06:24;;;;;;;8.80;7.00;;;10.50;99.90;;;;;;10425004;28;20676;-88
2023/09/02 02:11:29;;;;;;;7.67;6.87;;;10.40;99.90;;;;;;10451556;28;20733;-88
2023/09/02 02:16:32;;;;;;;9.17;7.10;;;10.30;99.90;;;;;;10451175;28;20638;-87
2023/09/02 02:21:35;;;;;;;7.93;6.50;;;10.20;99.90;;;;;;10426865;28;20234;-88
2023/09/02 02:26:37;;;;;;;10.73;6.77;;;10.20;99.90;;;;;;10411723;28;20712;-88
2023/09/02 02:31:40;;;;;;;8.23;7.07;;;10.10;99.90;;;;;;10436799;28;20668;-88
2023/09/02 02:36:42;;;;;;;12.27;7.50;;;10.00;99.90;;;;;;10451197;28;20310;-88
2023/09/02 02:41:45;;;;;;;9.93;7.73;;;9.90;99.90;;;;;;10452145;28;20605;-88
2023/09/02 02:46:47;;;;;;;13.63;8.40;;;9.90;99.90;;;;;;10435337;28;20269;-88
2023/09/02 02:51:50;;;;;;;12.10;8.23;;;9.80;99.90;;;;;;10425640;28;20247;-88
2023/09/02 02:56:54;;;;;;;7.43;6.73;;;9.70;99.90;;;;;;10440219;28;20256;-88
2023/09/02 03:01:57;;;;;;;8.73;7.27;;;9.70;99.90;;;;;;10449588;28;20277;-89
2023/09/02 03:07:03;;;;;;;9.07;7.03;;;9.60;99.90;;;;;;10449544;28;20738;-88
2023/09/02 03:12:06;;;;;;;7.23;6.10;;;9.50;99.90;;;;;;10449900;28;20227;-89
2023/09/02 03:17:09;;;;;;;9.23;6.20;;;9.40;99.90;;;;;;10415098;28;20790;-88
2023/09/02 03:22:12;;;;;;;8.23;6.40;;;9.30;99.90;;;;;;10422855;28;20241;-88
2023/09/02 03:27:17;;;;;;;6.63;5.67;;;9.20;99.90;;;;;;10419560;28;20422;-88
2023/09/02 03:32:20;;;;;;;9.23;6.23;;;9.10;99.90;;;;;;10408216;28;20298;-89
2023/09/02 03:37:23;;;;;;;6.27;5.67;;;9.00;99.90;;;;;;10449072;28;20280;-88
2023/09/02 03:42:26;;;;;;;7.00;6.30;;;9.10;99.90;;;;;;10448463;28;20230;-88
2023/09/02 03:47:32;;;;;;;11.20;6.33;;;9.10;99.90;;;;;;10468411;28;20248;-88
2023/09/02 03:52:37;;;;;;;7.03;5.90;;;9.10;99.90;;;;;;10454712;28;20611;-88
2023/09/02 03:57:40;;;;;;;7.67;6.47;;;9.10;99.90;;;;;;10449206;28;20786;-88
2023/09/02 04:02:42;;;;;;;8.73;6.50;;;8.90;99.90;;;;;;10431515;28;20283;-87
2023/09/02 04:07:47;;;;;;;7.03;6.13;;;8.80;99.90;;;;;;10446236;28;20305;-88
2023/09/02 04:12:50;;;;;;;9.50;6.67;;;8.90;99.90;;;;;;10446996;28;20238;-88
2023/09/02 04:17:53;;;;;;;7.67;6.17;;;8.90;99.90;;;;;;10449017;28;20256;-88
2023/09/02 04:22:57;;;;;;;6.43;5.80;;;8.90;99.90;;;;;;10447436;28;20238;-88
2023/09/02 04:27:59;;;;;;;8.03;6.20;;;8.90;99.90;;;;;;10447129;28;20588;-88
2023/09/02 04:33:02;;;;;;;7.73;6.73;;;8.80;99.90;;;;;;10446904;28;20303;-88
2023/09/02 04:38:06;;;;;;;8.30;6.10;;;8.90;99.90;;;;;;10447009;28;20250;-88
2023/09/02 04:43:12;;;;;;;8.30;6.10;;;8.90;99.90;;;;;;10454327;28;20277;-88
2023/09/02 04:48:15;;;;;;;9.67;6.43;;;9.00;99.90;;;;;;10458035;28;20234;-88
2023/09/02 04:53:19;;;;;;;9.17;7.03;;;9.00;99.90;;;;;;10446680;28;20242;-87
2023/09/02 04:58:25;;;;;;;9.30;6.70;;;9.00;99.90;;;;;;10447919;28;20267;-87
2023/09/02 05:03:28;;;;;;;9.83;7.37;;;9.20;99.90;;;;;;10462295;28;20240;-88
2023/09/02 05:08:34;;;;;;;12.63;7.20;;;9.30;99.90;;;;;;10486689;28;20261;-88
2023/09/02 05:13:37;;;;;;;8.87;6.37;;;9.40;99.90;;;;;;10447895;28;20235;-87
2023/09/02 05:18:40;;;;;;;12.47;9.10;;;9.50;99.90;;;;;;10445839;28;20320;-87
2023/09/02 05:23:42;;;;;;;10.37;9.30;;;9.70;99.90;;;;;;10445285;28;20239;-88
2023/09/02 05:28:46;;;;;;;14.30;10.33;;;9.80;99.90;;;;;;10437064;28;20596;-88
2023/09/02 05:33:49;;;;;;;12.30;10.53;;;10.10;99.90;;;;;;10451476;28;20234;-88
2023/09/02 05:38:52;;;;;;;12.53;10.33;;;10.30;99.90;;;;;;10453625;28;20252;-87
2023/09/02 05:43:54;;;;;;;14.30;11.60;;;10.50;99.90;;;;;;10454153;28;20296;-88
2023/09/02 05:48:57;;;;;;;17.27;11.93;;;10.80;99.90;;;;;;10454669;28;20264;-87
2023/09/02 05:54:00;;;;;;;14.40;12.13;;;11.10;99.90;;;;;;10453445;28;20756;-88
2023/09/02 05:59:03;;;;;;;18.33;13.70;;;11.30;99.90;;;;;;10452806;28;20262;-87
2023/09/02 06:04:06;;;;;;;17.10;13.23;;;11.50;99.90;;;;;;10482649;28;20223;-88
2023/09/02 06:09:09;;;;;;;20.27;14.67;;;11.80;99.90;;;;;;10452935;28;20278;-88
2023/09/02 06:14:12;;;;;;;23.37;16.03;;;12.00;99.90;;;;;;10453407;28;20230;-87
2023/09/02 06:19:14;;;;;;;21.53;16.07;;;12.30;99.90;;;;;;10448378;28;20737;-88
2023/09/02 06:24:20;;;;;;;21.30;14.73;;;12.50;99.90;;;;;;10446894;28;20231;-88
2023/09/02 06:29:25;;;;;;;16.60;12.90;;;12.70;99.90;;;;;;10451078;28;20638;-88
2023/09/02 06:34:28;;;;;;;16.10;11.57;;;12.90;99.90;;;;;;10448281;28;20226;-88
2023/09/02 06:39:30;;;;;;;13.97;11.03;;;13.10;99.90;;;;;;10450992;28;20299;-88
2023/09/02 06:44:33;;;;;;;14.27;10.40;;;13.40;99.90;;;;;;10433385;28;20230;-88
2023/09/02 06:49:35;;;;;;;11.90;10.37;;;13.60;99.90;;;;;;10453592;28;20227;-88
2023/09/02 06:54:38;;;;;;;15.53;10.50;;;13.70;99.90;;;;;;10450321;28;20250;-88
2023/09/02 06:59:40;;;;;;;10.95;8.43;;;14.00;99.90;;;;;;10468493;28;20679;-88
2023/09/02 07:04:47;;;;;;;16.33;9.95;;;14.20;99.90;;;;;;10451983;28;21070;-88
2023/09/02 07:09:49;;;;;;;10.50;8.02;;;14.40;99.90;;;;;;10447825;28;20254;-87
2023/09/02 07:14:52;;;;;;;10.10;8.13;;;14.60;99.90;;;;;;10450632;28;21094;-87
2023/09/02 07:19:55;;;;;;;13.48;7.80;;;14.80;99.90;;;;;;10449703;28;20716;-87
2023/09/02 07:24:57;;;;;;;8.30;5.82;;;15.10;99.90;;;;;;10450414;28;20284;-87
2023/09/02 07:30:00;;;;;;;5.22;4.00;;;15.40;99.90;;;;;;10450182;28;20284;-87
2023/09/02 07:35:03;;;;;;;8.40;5.28;;;15.70;99.90;;;;;;10450272;28;20674;-87
2023/09/02 07:40:06;;;;;;;4.38;3.88;;;16.20;99.90;;;;;;10444464;28;20230;-87
2023/09/02 07:45:09;;;;;;;7.50;3.58;;;16.60;99.90;;;;;;10448694;28;20230;-86
2023/09/02 07:50:12;;;;;;;6.63;4.70;;;16.90;99.90;;;;;;10446671;28;20269;-87
2023/09/02 07:55:14;;;;;;;10.50;6.05;;;17.20;99.90;;;;;;10448917;28;20304;-87
2023/09/02 08:00:20;;;;;;;4.30;3.85;;;17.50;99.90;;;;;;10449592;28;20233;-87
2023/09/02 08:05:22;;;;;;;7.35;3.92;;;17.70;99.90;;;;;;10485220;28;20238;-87
2023/09/02 08:10:25;;;;;;;6.18;5.35;;;18.10;99.90;;;;;;10490301;28;20653;-87
2023/09/02 08:15:27;;;;;;;5.78;3.13;;;18.40;99.90;;;;;;10469750;28;20688;-87
2023/09/02 08:20:30;;;;;;;4.80;4.40;;;18.60;96.80;;;;;;10489394;28;20666;-86
2023/09/02 08:25:33;;;;;;;7.32;3.53;;;19.10;97.90;;;;;;10446846;28;20230;-87
2023/09/02 08:30:38;;;;;;;7.10;2.65;;;19.20;95.50;;;;;;10445801;28;20272;-86
2023/09/02 08:35:43;;;;;;;5.72;5.18;;;19.30;93.20;;;;;;10448037;28;20896;-87
2023/09/02 08:40:48;;;;;;;6.35;2.72;;;19.50;95.00;;;;;;10445318;28;20261;-87
2023/09/02 08:45:53;;;;;;;4.28;3.42;;;19.50;91.40;;;;;;10446774;28;20235;-87
2023/09/02 08:50:56;;;;;;;4.57;3.00;;;19.60;89.20;;;;;;10448346;28;20234;-86
2023/09/02 08:56:00;;;;;;;3.95;3.65;;;19.70;86.90;;;;;;10446494;28;20285;-87
2023/09/02 09:01:03;;;;;;;4.60;3.00;;;19.80;88.20;;;;;;10446616;28;20616;-86
2023/09/02 09:06:09;;;;;;;5.60;4.30;;;19.90;81.70;;;;;;10444829;28;20679;-85
2023/09/02 09:11:13;;;;;;;5.63;2.40;;;20.00;88.90;;;;;;10454056;28;20307;-88
2023/09/02 09:16:19;;;;;;;5.10;2.17;;;20.30;77.50;;;;;;10453864;28;20258;-85
2023/09/02 09:21:23;;;;;;;4.60;2.30;;;20.40;76.30;;;;;;10454851;28;20665;-88
2023/09/02 09:26:26;;;;;;;12.87;4.20;;;20.70;77.20;;;;;;10454316;28;20475;-88
2023/09/02 09:31:29;;;;;;;42.00;17.63;;;20.90;80.60;;;;;;10451965;28;20541;-88
2023/09/02 09:36:33;;;;;;;346.02;271.73;;;21.40;70.60;;;;;;10452854;28;20717;-87
2023/09/02 09:41:44;;;;;;;93.80;67.70;;;21.50;73.40;;;;;;10454248;28;20292;-88
2023/09/02 09:46:47;;;;;;;74.78;44.97;;;21.70;64.20;;;;;;10454308;28;20286;-84
2023/09/02 09:52:06;;;;;;;5.85;3.42;;;21.80;63.80;;;;;;10454581;28;20319;-86
2023/09/02 09:57:11;;;;;;;25.23;21.40;;;21.70;59.40;;;;;;10440999;28;20639;-85
2023/09/02 10:02:18;;;;;;;34.67;30.45;;;21.80;47.40;;;;;;10456655;28;20697;-84
2023/09/02 10:07:30;;;;;;;6.15;4.15;;;21.70;49.40;;;;;;10463281;28;20332;-85
2023/09/02 10:12:33;;;;;;;149.00;72.05;;;21.90;48.50;;;;;;10438528;28;20238;-87
2023/09/02 10:17:44;;;;;;;143.60;66.70;;;22.00;51.90;;;;;;10440088;28;20263;-84
2023/09/02 10:22:50;;;;;;;12.30;8.25;;;22.00;53.20;;;;;;10410318;28;20742;-86
2023/09/02 10:28:24;;;;;;;3.53;2.58;;;22.10;49.70;;;;;;10432162;28;20326;-86
2023/09/02 10:33:38;;;;;;;3.60;1.60;;;22.00;51.10;;;;;;10451379;28;20292;-87
2023/09/02 10:38:44;;;;;;;2.00;0.80;;;22.10;49.40;;;;;;10450786;28;20254;-83
2023/09/02 10:43:47;;;;;;;1.40;0.65;;;21.80;50.80;;;;;;10451998;28;20222;-89
2023/09/02 10:48:50;;;;;;;0.80;0.60;;;21.80;51.50;;;;;;10448617;28;21033;-85
2023/09/02 10:53:56;;;;;;;1.70;0.80;;;21.60;50.20;;;;;;10451929;28;20690;-87
2023/09/02 10:59:02;;;;;;;2.08;0.90;;;21.70;53.30;;;;;;10450337;28;20270;-85
2023/09/02 11:04:05;;;;;;;1.17;0.77;;;21.80;54.70;;;;;;10441205;28;20235;-86
2023/09/02 11:09:07;;;;;;;2.92;1.05;;;21.70;52.60;;;;;;10450892;28;20265;-85
2023/09/02 11:14:10;;;;;;;1.67;0.60;;;21.80;51.70;;;;;;10444443;28;20924;-86
2023/09/02 11:19:12;;;;;;;2.20;1.38;;;21.80;50.60;;;;;;10456710;28;20319;-86
2023/09/02 11:24:19;;;;;;;1.00;0.63;;;21.80;50.10;;;;;;10456705;28;20238;-85
2023/09/02 11:29:27;;;;;;;1.52;0.68;;;22.00;52.10;;;;;;10427527;28;20605;-86
2023/09/02 11:34:31;;;;;;;1.13;0.60;;;22.00;53.20;;;;;;10450143;28;20848;-86
2023/09/02 11:39:33;;;;;;;1.73;0.75;;;22.00;52.20;;;;;;10450353;28;20258;-86
2023/09/02 11:44:36;;;;;;;2.33;0.88;;;21.90;54.20;;;;;;10450724;28;20226;-86
2023/09/02 11:49:40;;;;;;;2.03;1.00;;;22.00;55.10;;;;;;10450397;28;20234;-86
2023/09/02 11:54:46;;;;;;;1.08;0.70;;;22.00;58.40;;;;;;10449635;28;20654;-86
2023/09/02 11:59:49;;;;;;;0.80;0.60;;;22.00;58.40;;;;;;10450260;28;20266;-86
2023/09/02 12:04:52;;;;;;;0.77;0.43;;;22.00;58.70;;;;;;10448983;28;20646;-86
2023/09/02 12:09:55;;;;;;;0.95;0.75;;;22.10;61.30;;;;;;10450176;28;20668;-86
2023/09/02 12:14:58;;;;;;;2.88;0.70;;;22.00;61.80;;;;;;10449405;28;20278;-86
2023/09/02 12:20:00;;;;;;;3.67;1.95;;;21.80;54.50;;;;;;10449771;28;20311;-86
2023/09/02 12:25:17;;;;;;;4.10;1.02;;;22.00;57.00;;;;;;10448126;28;20246;-86
2023/09/02 12:30:27;;;;;;;3.05;0.70;;;21.90;57.10;;;;;;10449845;28;20242;-86
2023/09/02 12:35:30;;;;;;;1.48;1.08;;;21.80;61.90;;;;;;10449373;28;20210;-86
2023/09/02 12:40:33;;;;;;;1.10;0.65;;;22.00;62.20;;;;;;10448360;28;20323;-85
2023/09/02 12:45:40;;;;;;;0.90;0.70;;;22.00;57.30;;;;;;10456759;28;20224;-86
2023/09/02 12:50:44;;;;;;;1.95;0.82;;;22.00;58.40;;;;;;10457459;28;20231;-86
2023/09/02 12:55:47;;;;;;;1.40;0.80;;;22.10;61.10;;;;;;10457380;28;20276;-86
2023/09/02 13:00:49;;;;;;;1.80;0.80;;;22.00;60.60;;;;;;10455485;28;20215;-86
2023/09/02 13:05:52;;;;;;;1.20;0.60;;;22.10;61.20;;;;;;10455084;28;20214;-86
2023/09/02 13:10:55;;;;;;;1.50;0.90;;;22.20;64.00;;;;;;10455407;28;20255;-86
2023/09/02 13:15:59;;;;;;;0.88;0.80;;;22.20;59.60;;;;;;10456806;28;20227;-86
2023/09/02 13:21:02;;;;;;;0.93;0.80;;;22.20;60.40;;;;;;10454884;28;20227;-86
2023/09/02 13:26:17;;;;;;;2.10;1.10;;;22.30;60.30;;;;;;10455940;28;20261;-86
2023/09/02 13:31:19;;;;;;;2.10;0.80;;;22.30;59.30;;;;;;10455551;28;20316;-86
2023/09/02 13:36:22;;;;;;;2.53;0.82;;;22.30;59.10;;;;;;10455618;28;20259;-86
2023/09/02 13:41:25;;;;;;;2.28;1.10;;;22.30;57.70;;;;;;10455424;28;20238;-86
2023/09/02 13:46:31;;;;;;;1.10;0.82;;;22.30;56.00;;;;;;10456056;28;20238;-86
2023/09/02 13:51:33;;;;;;;2.63;1.08;;;22.40;57.90;;;;;;10453792;28;20230;-86
2023/09/02 13:56:36;;;;;;;1.38;0.90;;;22.40;55.40;;;;;;10454283;28;20242;-86
2023/09/02 14:01:39;;;;;;;1.17;0.63;;;22.40;57.50;;;;;;10455226;28;20191;-86
2023/09/02 14:06:41;;;;;;;1.35;0.90;;;22.40;58.20;;;;;;10454972;28;20284;-87
2023/09/02 14:11:44;;;;;;;2.80;0.98;;;22.50;55.70;;;;;;10454162;28;20274;-86
2023/09/02 14:16:50;;;;;;;1.17;0.80;;;22.50;55.90;;;;;;10453477;28;20250;-87
2023/09/02 14:21:53;;;;;;;3.22;0.95;;;22.60;57.90;;;;;;10452461;28;20203;-87
2023/09/02 14:27:15;;;;;;;0.82;0.80;;;22.60;57.20;;;;;;10453017;28;20292;-86
2023/09/02 14:32:18;;;;;;;0.93;0.60;;;22.70;58.30;;;;;;10451909;28;20296;-86
2023/09/02 14:37:20;;;;;;;0.50;0.50;;;22.60;57.80;;;;;;10453133;28;20257;-87
2023/09/02 14:42:23;;;;;;;0.88;0.82;;;22.60;58.40;;;;;;10453081;28;20235;-86
2023/09/02 14:47:25;;;;;;;0.60;0.60;;;22.60;59.90;;;;;;10453023;28;20230;-87
2023/09/02 14:52:33;;;;;;;1.67;0.95;;;22.70;61.10;;;;;;10453038;28;20280;-86
2023/09/02 14:57:36;;;;;;;0.90;0.60;;;22.60;61.30;;;;;;10451388;28;20819;-86
2023/09/02 15:02:41;;;;;;;1.00;0.85;;;22.50;60.40;;;;;;10452196;28;20234;-87
2023/09/02 15:07:45;;;;;;;0.82;0.68;;;22.60;62.70;;;;;;10452387;28;20313;-86
2023/09/02 15:12:48;;;;;;;2.17;1.30;;;22.60;63.40;;;;;;10450401;28;20215;-87
2023/09/02 15:17:51;;;;;;;1.15;0.98;;;22.60;64.20;;;;;;10451800;28;20250;-87
2023/09/02 15:22:55;;;;;;;1.63;0.85;;;22.70;66.90;;;;;;10450036;28;20273;-87
2023/09/02 15:28:05;;;;;;;2.13;0.80;;;22.60;63.80;;;;;;10451360;28;20246;-87
2023/09/02 15:33:10;;;;;;;1.20;1.10;;;22.60;67.10;;;;;;10450064;28;20242;-86
2023/09/02 15:38:15;;;;;;;2.85;0.88;;;22.60;62.00;;;;;;10449991;28;20844;-86
2023/09/02 15:43:18;;;;;;;1.20;0.90;;;22.50;59.00;;;;;;10448893;28;20322;-86
2023/09/02 15:48:21;;;;;;;1.27;0.98;;;22.60;66.20;;;;;;10450800;28;20642;-86
2023/09/02 15:53:23;;;;;;;1.30;1.00;;;22.50;61.70;;;;;;10448802;28;20238;-87
2023/09/02 15:58:26;;;;;;;2.17;0.93;;;22.50;64.10;;;;;;10450349;28;20311;-86
2023/09/02 16:03:29;;;;;;;1.25;0.93;;;22.50;63.80;;;;;;10447857;28;20578;-87
2023/09/02 16:08:31;;;;;;;1.30;0.93;;;22.40;65.30;;;;;;10449437;28;20316;-87
2023/09/02 16:13:37;;;;;;;2.15;0.88;;;22.40;63.90;;;;;;10431546;28;20246;-86
2023/09/02 16:18:39;;;;;;;1.17;0.90;;;22.30;62.50;;;;;;10448818;28;20258;-87
2023/09/02 16:23:42;;;;;;;1.02;0.85;;;22.10;58.30;;;;;;10448628;28;20234;-87
2023/09/02 16:28:45;;;;;;;1.35;1.23;;;22.00;59.60;;;;;;10448861;28;20281;-86
2023/09/02 16:33:47;;;;;;;4.82;1.42;;;21.90;61.60;;;;;;10449085;28;20268;-87
2023/09/02 16:38:50;;;;;;;2.13;1.35;;;21.80;68.90;;;;;;10463474;28;20324;-86
2023/09/02 16:43:52;;;;;;;2.38;1.60;;;21.60;66.00;;;;;;10447544;28;20242;-86
2023/09/02 16:49:14;;;;;;;1.77;1.45;;;21.30;73.00;;;;;;10447394;28;20239;-87
2023/09/02 16:54:20;;;;;;;2.03;1.42;;;21.00;69.10;;;;;;10447452;28;20296;-86
2023/09/02 16:59:23;;;;;;;2.67;1.90;;;20.70;69.90;;;;;;10449014;28;20258;-86
2023/09/02 17:04:26;;;;;;;3.05;1.67;;;20.50;74.10;;;;;;10448618;28;20234;-86
2023/09/02 17:09:29;;;;;;;2.65;2.08;;;20.10;77.40;;;;;;10446880;28;20745;-87
2023/09/02 17:14:31;;;;;;;2.70;1.88;;;19.80;76.60;;;;;;10448306;28;20681;-86
2023/09/02 17:19:34;;;;;;;2.75;2.30;;;19.60;74.70;;;;;;10448768;28;20691;-86
2023/09/02 17:24:37;;;;;;;5.22;2.85;;;19.30;80.90;;;;;;10448622;28;20238;-85
2023/09/02 17:29:39;;;;;;;7.07;5.07;;;19.10;85.20;;;;;;10452323;28;20238;-86
2023/09/02 17:34:43;;;;;;;5.25;4.70;;;18.80;90.60;;;;;;10455529;28;20376;-86
2023/09/02 17:39:46;;;;;;;7.57;3.45;;;18.40;93.70;;;;;;10470358;28;20262;-86
2023/09/02 17:44:49;;;;;;;5.40;3.22;;;18.00;95.30;;;;;;10454097;28;20290;-86
2023/09/02 17:49:52;;;;;;;7.70;5.70;;;17.80;96.40;;;;;;10453822;28;20978;-86
2023/09/02 17:54:55;;;;;;;10.85;7.47;;;17.60;96.80;;;;;;10486196;28;20206;-87
2023/09/02 17:59:58;;;;;;;8.20;6.60;;;17.50;98.70;;;;;;10464558;28;20664;-89
2023/09/02 18:05:03;;;;;;;6.47;5.80;;;17.60;99.30;;;;;;10455905;28;20272;-88
2023/09/02 18:10:11;;;;;;;7.68;4.68;;;17.60;99.60;;;;;;9751730;28;10000691;-87
2023/09/02 18:15:13;;;;;;;7.60;5.30;;;17.50;99.90;;;;;;10448438;28;20239;-87
2023/09/02 18:20:16;;;;;;;8.35;5.78;;;17.50;99.90;;;;;;10450662;28;20340;-87
2023/09/02 18:25:18;;;;;;;6.45;5.45;;;17.40;99.90;;;;;;10451451;28;20260;-87
2023/09/02 18:30:21;;;;;;;10.82;5.32;;;17.20;99.90;;;;;;10412808;28;20231;-87
2023/09/02 18:35:23;;;;;;;8.98;5.63;;;17.10;99.90;;;;;;10447866;28;20299;-87
2023/09/02 18:40:26;;;;;;;6.85;5.35;;;17.00;99.90;;;;;;10466599;28;20307;-85
2023/09/02 18:45:28;;;;;;;7.28;5.95;;;16.80;99.90;;;;;;10489121;28;20648;-87
2023/09/02 18:50:31;;;;;;;6.00;5.50;;;16.60;99.90;;;;;;10475972;28;20242;-87
2023/09/02 18:55:33;;;;;;;9.05;7.13;;;16.40;99.90;;;;;;10408964;28;20246;-87
2023/09/02 19:00:36;;;;;;;8.80;6.97;;;16.50;99.90;;;;;;10422334;28;20259;-87
2023/09/02 19:05:39;;;;;;;7.65;6.18;;;16.30;99.90;;;;;;10432570;28;20650;-87
2023/09/02 19:10:41;;;;;;;8.93;6.90;;;16.20;99.90;;;;;;10450457;28;20660;-87
2023/09/02 19:15:44;;;;;;;7.97;6.57;;;16.00;99.90;;;;;;10447815;28;20230;-87
2023/09/02 19:20:46;;;;;;;7.22;6.13;;;16.10;99.90;;;;;;10446595;28;20262;-87
2023/09/02 19:25:49;;;;;;;11.68;9.55;;;16.10;99.90;;;;;;10448008;28;20875;-88
2023/09/02 19:30:53;;;;;;;8.05;6.60;;;16.20;99.90;;;;;;10445885;28;20242;-87
2023/09/02 19:35:57;;;;;;;15.75;12.63;;;16.20;99.90;;;;;;10447007;28;20257;-87
2023/09/02 19:41:07;;;;;;;10.57;8.75;;;16.10;99.90;;;;;;10447351;28;20238;-87
2023/09/02 19:46:10;;;;;;;9.63;7.47;;;16.00;99.90;;;;;;10445199;28;20745;-87
2023/09/02 19:51:14;;;;;;;10.70;8.35;;;16.20;99.90;;;;;;10446642;28;20234;-87
2023/09/02 19:56:17;;;;;;;10.07;7.85;;;16.10;99.90;;;;;;10445225;28;20257;-87
2023/09/02 20:01:19;;;;;;;10.48;7.53;;;16.00;99.90;;;;;;10441518;28;20321;-87
2023/09/02 20:06:22;;;;;;;6.07;4.95;;;16.00;99.90;;;;;;10446651;28;20265;-86
2023/09/02 20:11:24;;;;;;;8.82;7.13;;;16.10;99.90;;;;;;10446573;28;20302;-87
2023/09/02 20:16:29;;;;;;;8.07;4.97;;;16.00;99.90;;;;;;10454978;28;20207;-87
2023/09/02 20:21:32;;;;;;;9.57;5.57;;;15.60;99.90;;;;;;10451325;28;20257;-87
2023/09/02 20:26:35;;;;;;;14.48;8.35;;;15.50;99.90;;;;;;10447268;28;20686;-88
2023/09/02 20:31:38;;;;;;;10.23;8.40;;;15.40;99.90;;;;;;10439576;28;20242;-87
2023/09/02 20:36:41;;;;;;;10.48;7.65;;;15.20;99.90;;;;;;10449960;28;20301;-87
2023/09/02 20:41:43;;;;;;;10.27;7.45;;;15.20;99.90;;;;;;10422231;28;20304;-87
2023/09/02 20:46:46;;;;;;;9.73;8.18;;;15.10;99.90;;;;;;10444778;28;20223;-87
2023/09/02 20:51:49;;;;;;;8.85;7.78;;;15.10;99.90;;;;;;10428816;28;20614;-87
2023/09/02 20:56:51;;;;;;;10.48;7.93;;;14.90;99.90;;;;;;10426120;28;20626;-88
2023/09/02 21:01:54;;;;;;;10.52;8.52;;;14.80;99.90;;;;;;10453652;28;20335;-88
2023/09/02 21:06:56;;;;;;;10.05;7.97;;;14.70;99.90;;;;;;10474015;28;20234;-88
2023/09/02 21:11:59;;;;;;;11.48;6.53;;;14.50;99.90;;;;;;10454382;28;20242;-87
2023/09/02 21:17:02;;;;;;;10.23;7.07;;;14.50;99.90;;;;;;10458810;28;22056;-88
2023/09/02 21:22:04;;;;;;;11.82;6.20;;;14.50;99.90;;;;;;10467413;28;20258;-88
2023/09/02 21:27:07;;;;;;;8.23;6.32;;;14.50;99.90;;;;;;10455220;28;20717;-87
2023/09/02 21:32:10;;;;;;;9.13;6.03;;;14.40;99.90;;;;;;10456040;28;20238;-87
2023/09/02 21:37:13;;;;;;;6.03;5.43;;;14.50;99.90;;;;;;10491958;28;20730;-87
2023/09/02 21:42:15;;;;;;;8.43;6.47;;;14.50;99.90;;;;;;10461364;28;20678;-87
2023/09/02 21:47:19;;;;;;;10.98;7.25;;;14.40;99.90;;;;;;10453401;28;20230;-87
2023/09/02 21:52:21;;;;;;;10.20;7.25;;;14.20;99.90;;;;;;10446589;28;20273;-87
2023/09/02 21:57:25;;;;;;;8.30;6.15;;;14.20;99.90;;;;;;10475750;28;20298;-87
2023/09/02 22:02:29;;;;;;;7.07;5.80;;;14.00;99.90;;;;;;10487274;28;20256;-87
2023/09/02 22:07:31;;;;;;;12.30;8.30;;;14.10;99.90;;;;;;10480022;28;20250;-87
2023/09/02 22:12:34;;;;;;;12.82;7.95;;;13.90;99.90;;;;;;10486657;28;20242;-88
2023/09/02 22:17:36;;;;;;;11.85;8.23;;;13.80;99.90;;;;;;10450806;28;20222;-87
2023/09/02 22:22:39;;;;;;;12.32;8.05;;;13.90;99.90;;;;;;10454354;28;20261;-87
2023/09/02 22:27:41;;;;;;;8.68;7.05;;;13.90;99.90;;;;;;10456219;28;20635;-87
2023/09/02 22:32:44;;;;;;;14.00;6.70;;;13.90;99.90;;;;;;10465553;28;20226;-87
2023/09/02 22:37:47;;;;;;;8.73;7.28;;;13.90;99.90;;;;;;10453597;28;20264;-87
2023/09/02 22:42:49;;;;;;;12.85;7.60;;;14.10;99.90;;;;;;10444910;28;20251;-87
2023/09/02 22:47:58;;;;;;;9.20;8.05;;;13.90;99.90;;;;;;10439154;28;20635;-87
2023/09/02 22:53:02;;;;;;;12.20;8.70;;;14.00;99.90;;;;;;10486810;28;20234;-87
2023/09/02 22:58:06;;;;;;;9.00;7.05;;;14.00;99.90;;;;;;10474776;28;20257;-87
2023/09/02 23:03:09;;;;;;;12.13;8.07;;;14.10;99.90;;;;;;10433451;28;20281;-89
2023/09/02 23:08:11;;;;;;;11.20;7.93;;;14.20;99.90;;;;;;10467217;28;20238;-89
2023/09/02 23:13:14;;;;;;;9.50;7.35;;;14.20;99.90;;;;;;10450004;28;20199;-89
2023/09/02 23:18:17;;;;;;;8.98;7.40;;;14.10;99.90;;;;;;10452452;28;20229;-89
2023/09/02 23:23:22;;;;;;;11.55;7.03;;;14.10;99.90;;;;;;10449835;28;20272;-88
2023/09/02 23:28:25;;;;;;;14.32;8.90;;;14.10;99.90;;;;;;10446505;28;20227;-89
2023/09/02 23:33:27;;;;;;;12.00;7.95;;;14.00;99.90;;;;;;10447976;28;20222;-88
2023/09/02 23:38:30;;;;;;;21.73;9.95;;;13.90;99.90;;;;;;10441017;28;20630;-88
2023/09/02 23:43:33;;;;;;;11.60;8.90;;;13.90;99.90;;;;;;10450919;28;20230;-88
2023/09/02 23:48:41;;;;;;;14.93;9.85;;;13.80;99.90;;;;;;10448579;28;20231;-88
2023/09/02 23:53:43;;;;;;;8.73;7.15;;;13.80;99.90;;;;;;10451902;28;20238;-88
2023/09/02 23:58:46;;;;;;;9.55;7.50;;;13.80;99.90;;;;;;10486410;28;20311;-89
